sensor_id;sensor_type;location;lat;lon;timestamp;temperature;humidity
60027;DHT22;45891;53.006;6.512;2023-06-14T00:02:15;16.50;70.10
60027;DHT22;45891;53.006;6.512;2023-06-14T00:04:44;16.40;70.50
60027;DHT22;45891;53.006;6.512;2023-06-14T00:07:11;16.40;70.70
60027;DHT22;45891;53.006;6.512;2023-06-14T00:09:42;16.30;71.20
60027;DHT22;45891;53.006;6.512;2023-06-14T00:12:12;16.20;71.50
60027;DHT22;45891;53.006;6.512;2023-06-14T00:14:38;16.20;71.60
60027;DHT22;45891;53.006;6.512;2023-06-14T00:17:07;16.20;71.80
60027;DHT22;45891;53.006;6.512;2023-06-14T00:19:33;16.20;71.90
60027;DHT22;45891;53.006;6.512;2023-06-14T00:22:01;16.10;72.40
60027;DHT22;45891;53.006;6.512;2023-06-14T00:24:27;16.10;72.80
60027;DHT22;45891;53.006;6.512;2023-06-14T00:26:56;16.00;73.50
60027;DHT22;45891;53.006;6.512;2023-06-14T00:29:22;16.00;73.30
60027;DHT22;45891;53.006;6.512;2023-06-14T00:31:48;15.90;73.70
60027;DHT22;45891;53.006;6.512;2023-06-14T00:34:14;15.90;74.20
60027;DHT22;45891;53.006;6.512;2023-06-14T00:36:40;15.80;74.50
60027;DHT22;45891;53.006;6.512;2023-06-14T00:39:06;15.80;74.70
60027;DHT22;45891;53.006;6.512;2023-06-14T00:41:32;15.80;75.50
60027;DHT22;45891;53.006;6.512;2023-06-14T00:43:59;15.70;75.50
60027;DHT22;45891;53.006;6.512;2023-06-14T00:46:29;15.70;75.80
60027;DHT22;45891;53.006;6.512;2023-06-14T00:48:56;15.70;76.00
60027;DHT22;45891;53.006;6.512;2023-06-14T00:51:22;15.70;76.40
60027;DHT22;45891;53.006;6.512;2023-06-14T00:53:51;15.70;76.60
60027;DHT22;45891;53.006;6.512;2023-06-14T00:56:17;15.60;77.10
60027;DHT22;45891;53.006;6.512;2023-06-14T00:58:49;15.50;78.00
60027;DHT22;45891;53.006;6.512;2023-06-14T01:01:16;15.50;78.00
60027;DHT22;45891;53.006;6.512;2023-06-14T01:03:43;15.50;79.00
60027;DHT22;45891;53.006;6.512;2023-06-14T01:08:50;15.40;79.40
60027;DHT22;45891;53.006;6.512;2023-06-14T01:11:32;15.40;79.60
60027;DHT22;45891;53.006;6.512;2023-06-14T01:14:05;15.30;80.10
60027;DHT22;45891;53.006;6.512;2023-06-14T01:16:32;15.30;80.70
60027;DHT22;45891;53.006;6.512;2023-06-14T01:19:01;15.20;81.40
60027;DHT22;45891;53.006;6.512;2023-06-14T01:21:28;15.20;81.60
60027;DHT22;45891;53.006;6.512;2023-06-14T01:23:54;15.20;81.90
60027;DHT22;45891;53.006;6.512;2023-06-14T01:26:22;15.10;82.40
60027;DHT22;45891;53.006;6.512;2023-06-14T01:28:49;15.10;83.00
60027;DHT22;45891;53.006;6.512;2023-06-14T01:31:19;15.10;83.60
60027;DHT22;45891;53.006;6.512;2023-06-14T01:33:46;15.10;83.80
60027;DHT22;45891;53.006;6.512;2023-06-14T01:36:12;15.00;84.40
60027;DHT22;45891;53.006;6.512;2023-06-14T01:38:39;15.00;85.00
60027;DHT22;45891;53.006;6.512;2023-06-14T01:41:06;15.00;85.50
60027;DHT22;45891;53.006;6.512;2023-06-14T01:43:36;14.90;85.70
60027;DHT22;45891;53.006;6.512;2023-06-14T01:46:03;14.90;86.70
60027;DHT22;45891;53.006;6.512;2023-06-14T01:48:30;14.90;87.10
60027;DHT22;45891;53.006;6.512;2023-06-14T01:50:58;14.90;87.70
60027;DHT22;45891;53.006;6.512;2023-06-14T01:53:24;14.80;88.90
60027;DHT22;45891;53.006;6.512;2023-06-14T01:55:51;14.80;88.70
60027;DHT22;45891;53.006;6.512;2023-06-14T01:58:19;14.80;89.40
60027;DHT22;45891;53.006;6.512;2023-06-14T02:00:46;14.80;90.10
60027;DHT22;45891;53.006;6.512;2023-06-14T02:03:13;14.70;90.20
60027;DHT22;45891;53.006;6.512;2023-06-14T02:05:39;14.70;90.50
60027;DHT22;45891;53.006;6.512;2023-06-14T02:08:08;14.70;90.60
60027;DHT22;45891;53.006;6.512;2023-06-14T02:10:34;14.70;90.90
60027;DHT22;45891;53.006;6.512;2023-06-14T02:13:00;14.60;91.40
60027;DHT22;45891;53.006;6.512;2023-06-14T02:15:26;14.60;91.50
60027;DHT22;45891;53.006;6.512;2023-06-14T02:18:03;14.60;92.00
60027;DHT22;45891;53.006;6.512;2023-06-14T02:20:29;14.50;92.00
60027;DHT22;45891;53.006;6.512;2023-06-14T02:22:56;14.50;92.40
60027;DHT22;45891;53.006;6.512;2023-06-14T02:25:22;14.40;92.60
60027;DHT22;45891;53.006;6.512;2023-06-14T02:27:48;14.40;92.80
60027;DHT22;45891;53.006;6.512;2023-06-14T02:30:15;14.40;93.30
60027;DHT22;45891;53.006;6.512;2023-06-14T02:32:44;14.40;93.30
60027;DHT22;45891;53.006;6.512;2023-06-14T02:35:10;14.40;93.70
60027;DHT22;45891;53.006;6.512;2023-06-14T02:37:36;14.30;94.10
60027;DHT22;45891;53.006;6.512;2023-06-14T02:40:03;14.30;94.50
60027;DHT22;45891;53.006;6.512;2023-06-14T02:42:30;14.30;94.50
60027;DHT22;45891;53.006;6.512;2023-06-14T02:44:56;14.20;94.60
60027;DHT22;45891;53.006;6.512;2023-06-14T02:47:22;14.20;95.00
60027;DHT22;45891;53.006;6.512;2023-06-14T02:49:48;14.20;95.40
60027;DHT22;45891;53.006;6.512;2023-06-14T02:52:15;14.20;95.20
60027;DHT22;45891;53.006;6.512;2023-06-14T02:54:41;14.20;95.50
60027;DHT22;45891;53.006;6.512;2023-06-14T02:57:08;14.20;95.50
60027;DHT22;45891;53.006;6.512;2023-06-14T02:59:34;14.10;95.80
60027;DHT22;45891;53.006;6.512;2023-06-14T03:02:01;14.10;95.90
60027;DHT22;45891;53.006;6.512;2023-06-14T03:04:27;14.10;96.00
60027;DHT22;45891;53.006;6.512;2023-06-14T03:06:54;14.10;96.20
60027;DHT22;45891;53.006;6.512;2023-06-14T03:09:21;14.10;96.40
60027;DHT22;45891;53.006;6.512;2023-06-14T03:11:47;14.10;96.50
60027;DHT22;45891;53.006;6.512;2023-06-14T03:14:13;14.10;96.70
60027;DHT22;45891;53.006;6.512;2023-06-14T03:16:39;14.00;96.90
60027;DHT22;45891;53.006;6.512;2023-06-14T03:19:07;14.00;96.90
60027;DHT22;45891;53.006;6.512;2023-06-14T03:21:33;14.00;96.90
60027;DHT22;45891;53.006;6.512;2023-06-14T03:24:00;14.00;97.40
60027;DHT22;45891;53.006;6.512;2023-06-14T03:26:30;14.00;97.50
60027;DHT22;45891;53.006;6.512;2023-06-14T03:28:59;14.00;97.60
60027;DHT22;45891;53.006;6.512;2023-06-14T03:31:25;14.00;97.60
60027;DHT22;45891;53.006;6.512;2023-06-14T03:33:52;14.00;98.10
60027;DHT22;45891;53.006;6.512;2023-06-14T03:36:18;14.00;98.10
60027;DHT22;45891;53.006;6.512;2023-06-14T03:38:44;14.00;98.10
60027;DHT22;45891;53.006;6.512;2023-06-14T03:41:10;14.00;98.20
60027;DHT22;45891;53.006;6.512;2023-06-14T03:43:36;14.10;98.50
60027;DHT22;45891;53.006;6.512;2023-06-14T03:46:05;14.10;98.60
60027;DHT22;45891;53.006;6.512;2023-06-14T03:48:32;14.10;99.00
60027;DHT22;45891;53.006;6.512;2023-06-14T03:50:58;14.10;98.90
60027;DHT22;45891;53.006;6.512;2023-06-14T03:53:24;14.10;99.20
60027;DHT22;45891;53.006;6.512;2023-06-14T03:55:53;14.10;99.10
60027;DHT22;45891;53.006;6.512;2023-06-14T03:58:19;14.20;99.20
60027;DHT22;45891;53.006;6.512;2023-06-14T04:00:46;14.20;99.40
60027;DHT22;45891;53.006;6.512;2023-06-14T04:03:12;14.20;99.40
60027;DHT22;45891;53.006;6.512;2023-06-14T04:05:42;14.30;99.50
60027;DHT22;45891;53.006;6.512;2023-06-14T04:08:08;14.30;99.50
60027;DHT22;45891;53.006;6.512;2023-06-14T04:10:35;14.30;99.50
60027;DHT22;45891;53.006;6.512;2023-06-14T04:13:01;14.40;99.40
60027;DHT22;45891;53.006;6.512;2023-06-14T04:15:28;14.50;99.40
60027;DHT22;45891;53.006;6.512;2023-06-14T04:17:54;14.50;99.60
60027;DHT22;45891;53.006;6.512;2023-06-14T04:20:26;14.50;99.80
60027;DHT22;45891;53.006;6.512;2023-06-14T04:22:52;14.50;99.60
60027;DHT22;45891;53.006;6.512;2023-06-14T04:25:18;14.60;99.70
60027;DHT22;45891;53.006;6.512;2023-06-14T04:27:45;14.70;99.70
60027;DHT22;45891;53.006;6.512;2023-06-14T04:30:13;14.70;99.60
60027;DHT22;45891;53.006;6.512;2023-06-14T04:32:39;14.80;99.60
60027;DHT22;45891;53.006;6.512;2023-06-14T04:35:06;14.90;99.80
60027;DHT22;45891;53.006;6.512;2023-06-14T04:37:33;14.90;99.60
60027;DHT22;45891;53.006;6.512;2023-06-14T04:39:59;14.90;99.70
60027;DHT22;45891;53.006;6.512;2023-06-14T04:42:25;14.90;99.50
60027;DHT22;45891;53.006;6.512;2023-06-14T04:44:58;15.10;99.50
60027;DHT22;45891;53.006;6.512;2023-06-14T04:47:27;15.10;99.50
60027;DHT22;45891;53.006;6.512;2023-06-14T04:49:57;15.10;99.50
60027;DHT22;45891;53.006;6.512;2023-06-14T04:52:23;15.20;99.40
60027;DHT22;45891;53.006;6.512;2023-06-14T04:54:52;15.30;99.50
60027;DHT22;45891;53.006;6.512;2023-06-14T04:57:20;15.30;99.30
60027;DHT22;45891;53.006;6.512;2023-06-14T04:59:48;15.40;99.30
60027;DHT22;45891;53.006;6.512;2023-06-14T05:02:24;15.50;99.30
60027;DHT22;45891;53.006;6.512;2023-06-14T05:04:50;15.50;99.20
60027;DHT22;45891;53.006;6.512;2023-06-14T05:07:17;15.60;99.20
60027;DHT22;45891;53.006;6.512;2023-06-14T05:09:43;15.60;99.20
60027;DHT22;45891;53.006;6.512;2023-06-14T05:12:09;15.80;99.20
60027;DHT22;45891;53.006;6.512;2023-06-14T05:14:36;15.80;99.20
60027;DHT22;45891;53.006;6.512;2023-06-14T05:17:02;15.90;99.10
60027;DHT22;45891;53.006;6.512;2023-06-14T05:19:28;16.00;99.10
60027;DHT22;45891;53.006;6.512;2023-06-14T05:21:54;16.00;98.90
60027;DHT22;45891;53.006;6.512;2023-06-14T05:24:20;16.10;98.90
60027;DHT22;45891;53.006;6.512;2023-06-14T05:26:49;16.20;98.90
60027;DHT22;45891;53.006;6.512;2023-06-14T05:29:15;16.20;98.70
60027;DHT22;45891;53.006;6.512;2023-06-14T05:31:41;16.40;98.80
60027;DHT22;45891;53.006;6.512;2023-06-14T05:34:07;16.40;98.60
60027;DHT22;45891;53.006;6.512;2023-06-14T05:36:33;16.60;98.50
60027;DHT22;45891;53.006;6.512;2023-06-14T05:38:59;16.70;98.40
60027;DHT22;45891;53.006;6.512;2023-06-14T05:41:27;16.80;98.30
60027;DHT22;45891;53.006;6.512;2023-06-14T05:43:57;16.90;98.20
60027;DHT22;45891;53.006;6.512;2023-06-14T05:46:23;17.10;98.10
60027;DHT22;45891;53.006;6.512;2023-06-14T05:48:53;17.40;97.90
60027;DHT22;45891;53.006;6.512;2023-06-14T05:51:20;17.60;97.50
60027;DHT22;45891;53.006;6.512;2023-06-14T05:53:50;17.80;97.50
60027;DHT22;45891;53.006;6.512;2023-06-14T05:56:17;18.10;97.10
60027;DHT22;45891;53.006;6.512;2023-06-14T05:58:44;18.30;96.90
60027;DHT22;45891;53.006;6.512;2023-06-14T06:01:11;18.50;96.50
60027;DHT22;45891;53.006;6.512;2023-06-14T06:03:37;18.80;96.30
60027;DHT22;45891;53.006;6.512;2023-06-14T06:06:03;19.00;95.40
60027;DHT22;45891;53.006;6.512;2023-06-14T06:08:29;19.10;95.50
60027;DHT22;45891;53.006;6.512;2023-06-14T06:10:57;19.20;94.80
60027;DHT22;45891;53.006;6.512;2023-06-14T06:13:23;19.50;94.90
60027;DHT22;45891;53.006;6.512;2023-06-14T06:15:49;19.70;94.60
60027;DHT22;45891;53.006;6.512;2023-06-14T06:18:15;19.80;94.20
60027;DHT22;45891;53.006;6.512;2023-06-14T06:20:41;19.90;94.00
60027;DHT22;45891;53.006;6.512;2023-06-14T06:23:07;20.10;93.30
60027;DHT22;45891;53.006;6.512;2023-06-14T06:25:36;20.40;93.50
60027;DHT22;45891;53.006;6.512;2023-06-14T06:28:03;20.60;93.30
60027;DHT22;45891;53.006;6.512;2023-06-14T06:30:29;20.90;93.00
60027;DHT22;45891;53.006;6.512;2023-06-14T06:32:55;21.10;92.70
60027;DHT22;45891;53.006;6.512;2023-06-14T06:35:21;21.40;92.40
60027;DHT22;45891;53.006;6.512;2023-06-14T06:37:47;21.70;91.90
60027;DHT22;45891;53.006;6.512;2023-06-14T06:40:13;21.90;91.70
60027;DHT22;45891;53.006;6.512;2023-06-14T06:42:40;22.10;91.10
60027;DHT22;45891;53.006;6.512;2023-06-14T06:45:06;22.20;90.80
60027;DHT22;45891;53.006;6.512;2023-06-14T06:47:32;22.30;89.10
60027;DHT22;45891;53.006;6.512;2023-06-14T06:49:58;22.50;89.50
60027;DHT22;45891;53.006;6.512;2023-06-14T06:52:27;22.30;88.50
60027;DHT22;45891;53.006;6.512;2023-06-14T06:54:55;22.60;88.50
60027;DHT22;45891;53.006;6.512;2023-06-14T06:57:22;22.70;86.90
60027;DHT22;45891;53.006;6.512;2023-06-14T06:59:49;22.90;87.30
60027;DHT22;45891;53.006;6.512;2023-06-14T07:02:16;23.00;86.30
60027;DHT22;45891;53.006;6.512;2023-06-14T07:04:42;23.20;85.70
60027;DHT22;45891;53.006;6.512;2023-06-14T07:07:11;23.50;83.60
60027;DHT22;45891;53.006;6.512;2023-06-14T07:09:37;23.60;82.40
60027;DHT22;45891;53.006;6.512;2023-06-14T07:12:11;23.80;83.80
60027;DHT22;45891;53.006;6.512;2023-06-14T07:14:37;24.00;82.80
60027;DHT22;45891;53.006;6.512;2023-06-14T07:17:06;23.90;82.30
60027;DHT22;45891;53.006;6.512;2023-06-14T07:19:32;24.10;82.10
60027;DHT22;45891;53.006;6.512;2023-06-14T07:22:01;24.20;81.20
60027;DHT22;45891;53.006;6.512;2023-06-14T07:24:27;24.80;80.90
60027;DHT22;45891;53.006;6.512;2023-06-14T07:26:54;25.40;80.20
60027;DHT22;45891;53.006;6.512;2023-06-14T07:29:22;26.00;77.90
60027;DHT22;45891;53.006;6.512;2023-06-14T07:31:51;25.70;78.00
60027;DHT22;45891;53.006;6.512;2023-06-14T07:34:17;25.40;78.40
60027;DHT22;45891;53.006;6.512;2023-06-14T07:36:43;25.40;78.50
60027;DHT22;45891;53.006;6.512;2023-06-14T07:39:10;25.80;78.00
60027;DHT22;45891;53.006;6.512;2023-06-14T07:41:37;26.20;77.10
60027;DHT22;45891;53.006;6.512;2023-06-14T07:44:03;26.20;76.50
60027;DHT22;45891;53.006;6.512;2023-06-14T07:46:29;26.30;75.30
60027;DHT22;45891;53.006;6.512;2023-06-14T07:48:58;26.20;74.90
60027;DHT22;45891;53.006;6.512;2023-06-14T07:51:24;26.30;73.40
60027;DHT22;45891;53.006;6.512;2023-06-14T07:53:50;26.40;74.60
60027;DHT22;45891;53.006;6.512;2023-06-14T07:56:17;26.60;73.30
60027;DHT22;45891;53.006;6.512;2023-06-14T07:58:46;26.60;73.90
60027;DHT22;45891;53.006;6.512;2023-06-14T08:01:12;27.10;74.20
60027;DHT22;45891;53.006;6.512;2023-06-14T08:03:38;27.20;70.20
60027;DHT22;45891;53.006;6.512;2023-06-14T08:06:04;27.00;72.20
60027;DHT22;45891;53.006;6.512;2023-06-14T08:08:30;27.30;72.10
60027;DHT22;45891;53.006;6.512;2023-06-14T08:10:57;27.50;71.70
60027;DHT22;45891;53.006;6.512;2023-06-14T08:13:23;27.70;71.10
60027;DHT22;45891;53.006;6.512;2023-06-14T08:15:49;27.30;69.50
60027;DHT22;45891;53.006;6.512;2023-06-14T08:18:15;27.30;70.00
60027;DHT22;45891;53.006;6.512;2023-06-14T08:20:41;27.30;70.80
60027;DHT22;45891;53.006;6.512;2023-06-14T08:23:10;27.50;71.10
60027;DHT22;45891;53.006;6.512;2023-06-14T08:25:37;28.00;70.00
60027;DHT22;45891;53.006;6.512;2023-06-14T08:28:03;28.20;69.30
60027;DHT22;45891;53.006;6.512;2023-06-14T08:30:29;28.30;67.90
60027;DHT22;45891;53.006;6.512;2023-06-14T08:32:55;28.50;68.40
60027;DHT22;45891;53.006;6.512;2023-06-14T08:35:22;28.60;68.10
60027;DHT22;45891;53.006;6.512;2023-06-14T08:37:49;28.70;66.20
60027;DHT22;45891;53.006;6.512;2023-06-14T08:40:21;28.40;65.60
60027;DHT22;45891;53.006;6.512;2023-06-14T08:42:51;28.10;65.50
60027;DHT22;45891;53.006;6.512;2023-06-14T08:45:17;28.30;64.40
60027;DHT22;45891;53.006;6.512;2023-06-14T08:47:44;28.40;64.80
60027;DHT22;45891;53.006;6.512;2023-06-14T08:50:11;28.50;66.00
60027;DHT22;45891;53.006;6.512;2023-06-14T08:52:38;29.10;66.10
60027;DHT22;45891;53.006;6.512;2023-06-14T08:55:15;29.40;64.20
60027;DHT22;45891;53.006;6.512;2023-06-14T08:57:44;29.40;64.50
60027;DHT22;45891;53.006;6.512;2023-06-14T09:00:12;29.60;64.70
60027;DHT22;45891;53.006;6.512;2023-06-14T09:02:39;29.70;63.70
60027;DHT22;45891;53.006;6.512;2023-06-14T09:05:10;30.00;64.60
60027;DHT22;45891;53.006;6.512;2023-06-14T09:07:42;29.90;63.40
60027;DHT22;45891;53.006;6.512;2023-06-14T09:10:14;29.60;62.30
60027;DHT22;45891;53.006;6.512;2023-06-14T09:12:40;29.60;62.20
60027;DHT22;45891;53.006;6.512;2023-06-14T09:15:07;29.70;62.50
60027;DHT22;45891;53.006;6.512;2023-06-14T09:17:38;29.70;62.10
60027;DHT22;45891;53.006;6.512;2023-06-14T09:20:06;29.80;62.70
60027;DHT22;45891;53.006;6.512;2023-06-14T09:22:35;30.50;62.60
60027;DHT22;45891;53.006;6.512;2023-06-14T09:25:01;30.50;60.40
60027;DHT22;45891;53.006;6.512;2023-06-14T09:27:32;30.60;61.30
60027;DHT22;45891;53.006;6.512;2023-06-14T09:29:58;30.00;59.90
60027;DHT22;45891;53.006;6.512;2023-06-14T09:32:25;29.80;60.00
60027;DHT22;45891;53.006;6.512;2023-06-14T09:34:51;29.80;61.30
60027;DHT22;45891;53.006;6.512;2023-06-14T09:37:31;29.60;60.40
60027;DHT22;45891;53.006;6.512;2023-06-14T09:39:57;29.80;60.30
60027;DHT22;45891;53.006;6.512;2023-06-14T09:42:24;29.90;60.00
60027;DHT22;45891;53.006;6.512;2023-06-14T09:44:54;30.30;60.80
60027;DHT22;45891;53.006;6.512;2023-06-14T09:47:21;30.60;59.40
60027;DHT22;45891;53.006;6.512;2023-06-14T09:49:48;31.20;60.30
60027;DHT22;45891;53.006;6.512;2023-06-14T09:52:19;31.30;58.60
60027;DHT22;45891;53.006;6.512;2023-06-14T09:54:46;30.80;59.10
60027;DHT22;45891;53.006;6.512;2023-06-14T09:57:21;30.80;59.10
60027;DHT22;45891;53.006;6.512;2023-06-14T09:59:48;31.30;58.40
60027;DHT22;45891;53.006;6.512;2023-06-14T10:02:25;31.40;58.00
60027;DHT22;45891;53.006;6.512;2023-06-14T10:05:02;31.40;58.30
60027;DHT22;45891;53.006;6.512;2023-06-14T10:07:34;31.80;56.50
60027;DHT22;45891;53.006;6.512;2023-06-14T10:10:01;31.50;58.00
60027;DHT22;45891;53.006;6.512;2023-06-14T10:12:27;31.80;58.70
60027;DHT22;45891;53.006;6.512;2023-06-14T10:14:55;32.30;58.20
60027;DHT22;45891;53.006;6.512;2023-06-14T10:17:52;32.10;56.70
60027;DHT22;45891;53.006;6.512;2023-06-14T10:20:47;31.10;56.60
60027;DHT22;45891;53.006;6.512;2023-06-14T10:23:18;31.10;57.40
60027;DHT22;45891;53.006;6.512;2023-06-14T10:25:50;31.70;57.40
60027;DHT22;45891;53.006;6.512;2023-06-14T10:28:18;32.10;58.00
60027;DHT22;45891;53.006;6.512;2023-06-14T10:31:05;32.10;57.00
60027;DHT22;45891;53.006;6.512;2023-06-14T10:33:49;32.30;56.30
60027;DHT22;45891;53.006;6.512;2023-06-14T10:39:17;32.50;54.80
60027;DHT22;45891;53.006;6.512;2023-06-14T10:41:54;32.60;55.20
60027;DHT22;45891;53.006;6.512;2023-06-14T10:46:52;32.00;55.20
60027;DHT22;45891;53.006;6.512;2023-06-14T10:49:19;31.80;54.70
60027;DHT22;45891;53.006;6.512;2023-06-14T10:51:49;31.80;55.60
60027;DHT22;45891;53.006;6.512;2023-06-14T10:54:16;31.30;55.30
60027;DHT22;45891;53.006;6.512;2023-06-14T10:56:52;31.60;55.50
60027;DHT22;45891;53.006;6.512;2023-06-14T10:59:19;31.90;56.10
60027;DHT22;45891;53.006;6.512;2023-06-14T11:04:55;32.10;55.20
60027;DHT22;45891;53.006;6.512;2023-06-14T11:10:40;32.10;54.30
60027;DHT22;45891;53.006;6.512;2023-06-14T11:13:08;30.80;53.80
60027;DHT22;45891;53.006;6.512;2023-06-14T11:15:35;30.70;54.10
60027;DHT22;45891;53.006;6.512;2023-06-14T11:18:04;30.90;54.70
60027;DHT22;45891;53.006;6.512;2023-06-14T11:20:32;31.00;54.20
60027;DHT22;45891;53.006;6.512;2023-06-14T11:22:59;30.90;53.60
60027;DHT22;45891;53.006;6.512;2023-06-14T11:25:26;31.00;54.20
60027;DHT22;45891;53.006;6.512;2023-06-14T11:27:54;30.90;53.60
60027;DHT22;45891;53.006;6.512;2023-06-14T11:30:23;30.90;54.30
60027;DHT22;45891;53.006;6.512;2023-06-14T11:32:52;30.80;54.40
60027;DHT22;45891;53.006;6.512;2023-06-14T11:35:21;31.30;54.10
60027;DHT22;45891;53.006;6.512;2023-06-14T11:37:54;31.10;54.90
60027;DHT22;45891;53.006;6.512;2023-06-14T11:40:26;31.10;54.00
60027;DHT22;45891;53.006;6.512;2023-06-14T11:43:00;30.90;54.20
60027;DHT22;45891;53.006;6.512;2023-06-14T11:45:27;30.80;54.50
60027;DHT22;45891;53.006;6.512;2023-06-14T11:47:58;30.80;54.80
60027;DHT22;45891;53.006;6.512;2023-06-14T11:50:25;30.80;54.80
60027;DHT22;45891;53.006;6.512;2023-06-14T11:52:59;31.00;55.50
60027;DHT22;45891;53.006;6.512;2023-06-14T11:55:39;31.20;54.60
60027;DHT22;45891;53.006;6.512;2023-06-14T11:58:06;31.50;53.90
60027;DHT22;45891;53.006;6.512;2023-06-14T12:00:35;31.70;54.20
60027;DHT22;45891;53.006;6.512;2023-06-14T12:03:01;32.50;54.50
60027;DHT22;45891;53.006;6.512;2023-06-14T12:05:29;32.30;53.20
60027;DHT22;45891;53.006;6.512;2023-06-14T12:07:59;31.50;54.20
60027;DHT22;45891;53.006;6.512;2023-06-14T12:10:26;31.30;54.00
60027;DHT22;45891;53.006;6.512;2023-06-14T12:12:59;31.40;54.50
60027;DHT22;45891;53.006;6.512;2023-06-14T12:15:29;31.10;53.30
60027;DHT22;45891;53.006;6.512;2023-06-14T12:17:58;30.90;54.40
60027;DHT22;45891;53.006;6.512;2023-06-14T12:20:32;31.00;54.00
60027;DHT22;45891;53.006;6.512;2023-06-14T12:22:59;31.20;54.30
60027;DHT22;45891;53.006;6.512;2023-06-14T12:25:39;31.70;54.30
60027;DHT22;45891;53.006;6.512;2023-06-14T12:28:09;31.60;53.30
60027;DHT22;45891;53.006;6.512;2023-06-14T12:30:36;31.80;54.00
60027;DHT22;45891;53.006;6.512;2023-06-14T12:33:05;32.10;54.30
60027;DHT22;45891;53.006;6.512;2023-06-14T12:35:33;31.90;52.70
60027;DHT22;45891;53.006;6.512;2023-06-14T12:37:59;31.60;52.90
60027;DHT22;45891;53.006;6.512;2023-06-14T12:40:25;31.30;53.00
60027;DHT22;45891;53.006;6.512;2023-06-14T12:42:52;31.20;53.40
60027;DHT22;45891;53.006;6.512;2023-06-14T12:45:18;31.70;53.00
60027;DHT22;45891;53.006;6.512;2023-06-14T12:47:44;31.60;53.20
60027;DHT22;45891;53.006;6.512;2023-06-14T12:50:10;31.80;54.00
60027;DHT22;45891;53.006;6.512;2023-06-14T12:52:36;32.50;53.90
60027;DHT22;45891;53.006;6.512;2023-06-14T12:55:04;33.10;53.50
60027;DHT22;45891;53.006;6.512;2023-06-14T12:57:31;32.70;52.60
60027;DHT22;45891;53.006;6.512;2023-06-14T12:59:57;32.40;52.60
60027;DHT22;45891;53.006;6.512;2023-06-14T13:02:23;32.00;53.00
60027;DHT22;45891;53.006;6.512;2023-06-14T13:04:50;31.20;53.20
60027;DHT22;45891;53.006;6.512;2023-06-14T13:07:16;31.30;53.10
60027;DHT22;45891;53.006;6.512;2023-06-14T13:09:43;31.30;53.00
60027;DHT22;45891;53.006;6.512;2023-06-14T13:12:10;31.50;53.50
60027;DHT22;45891;53.006;6.512;2023-06-14T13:14:40;31.60;53.00
60027;DHT22;45891;53.006;6.512;2023-06-14T13:17:09;31.50;53.50
60027;DHT22;45891;53.006;6.512;2023-06-14T13:19:36;31.40;53.40
60027;DHT22;45891;53.006;6.512;2023-06-14T13:22:02;31.80;53.30
60027;DHT22;45891;53.006;6.512;2023-06-14T13:24:29;32.30;53.00
60027;DHT22;45891;53.006;6.512;2023-06-14T13:26:56;32.50;53.10
60027;DHT22;45891;53.006;6.512;2023-06-14T13:29:24;31.90;53.20
60027;DHT22;45891;53.006;6.512;2023-06-14T13:31:50;31.60;52.50
60027;DHT22;45891;53.006;6.512;2023-06-14T13:34:16;31.70;52.60
60027;DHT22;45891;53.006;6.512;2023-06-14T13:36:42;32.60;53.00
60027;DHT22;45891;53.006;6.512;2023-06-14T13:39:09;33.30;52.00
60027;DHT22;45891;53.006;6.512;2023-06-14T13:41:36;33.70;52.10
60027;DHT22;45891;53.006;6.512;2023-06-14T13:44:03;33.20;52.00
60027;DHT22;45891;53.006;6.512;2023-06-14T13:46:32;33.10;51.10
60027;DHT22;45891;53.006;6.512;2023-06-14T13:48:58;32.70;51.20
60027;DHT22;45891;53.006;6.512;2023-06-14T13:51:26;32.00;51.80
60027;DHT22;45891;53.006;6.512;2023-06-14T13:53:55;32.80;52.40
60027;DHT22;45891;53.006;6.512;2023-06-14T13:56:22;33.30;52.10
60027;DHT22;45891;53.006;6.512;2023-06-14T13:58:50;33.80;52.30
60027;DHT22;45891;53.006;6.512;2023-06-14T14:01:18;33.80;51.40
60027;DHT22;45891;53.006;6.512;2023-06-14T14:03:46;32.70;51.30
60027;DHT22;45891;53.006;6.512;2023-06-14T14:06:13;32.10;51.40
60027;DHT22;45891;53.006;6.512;2023-06-14T14:08:39;31.70;51.70
60027;DHT22;45891;53.006;6.512;2023-06-14T14:11:05;31.30;51.80
60027;DHT22;45891;53.006;6.512;2023-06-14T14:13:31;30.90;52.00
60027;DHT22;45891;53.006;6.512;2023-06-14T14:15:58;31.60;52.50
60027;DHT22;45891;53.006;6.512;2023-06-14T14:18:24;32.20;52.20
60027;DHT22;45891;53.006;6.512;2023-06-14T14:20:51;32.50;51.90
60027;DHT22;45891;53.006;6.512;2023-06-14T14:23:17;31.80;51.20
60027;DHT22;45891;53.006;6.512;2023-06-14T14:25:43;31.40;52.20
60027;DHT22;45891;53.006;6.512;2023-06-14T14:28:09;31.20;52.20
60027;DHT22;45891;53.006;6.512;2023-06-14T14:30:37;30.50;52.00
60027;DHT22;45891;53.006;6.512;2023-06-14T14:33:05;30.40;52.30
60027;DHT22;45891;53.006;6.512;2023-06-14T14:35:32;31.30;53.20
60027;DHT22;45891;53.006;6.512;2023-06-14T14:37:58;31.00;52.00
60027;DHT22;45891;53.006;6.512;2023-06-14T14:40:25;30.70;52.30
60027;DHT22;45891;53.006;6.512;2023-06-14T14:42:51;30.30;52.20
60027;DHT22;45891;53.006;6.512;2023-06-14T14:45:17;30.00;52.70
60027;DHT22;45891;53.006;6.512;2023-06-14T14:47:43;30.30;52.30
60027;DHT22;45891;53.006;6.512;2023-06-14T14:50:10;30.70;52.70
60027;DHT22;45891;53.006;6.512;2023-06-14T14:52:39;31.60;53.10
60027;DHT22;45891;53.006;6.512;2023-06-14T14:55:05;32.50;52.40
60027;DHT22;45891;53.006;6.512;2023-06-14T14:57:31;33.10;52.20
60027;DHT22;45891;53.006;6.512;2023-06-14T14:59:58;33.20;52.20
60027;DHT22;45891;53.006;6.512;2023-06-14T15:02:24;32.70;51.70
60027;DHT22;45891;53.006;6.512;2023-06-14T15:04:50;31.70;51.40
60027;DHT22;45891;53.006;6.512;2023-06-14T15:07:17;31.50;52.10
60027;DHT22;45891;53.006;6.512;2023-06-14T15:09:43;32.30;52.40
60027;DHT22;45891;53.006;6.512;2023-06-14T15:12:10;32.50;51.90
60027;DHT22;45891;53.006;6.512;2023-06-14T15:14:36;32.30;51.40
60027;DHT22;45891;53.006;6.512;2023-06-14T15:17:03;31.70;51.40
60027;DHT22;45891;53.006;6.512;2023-06-14T15:19:29;31.10;52.40
60027;DHT22;45891;53.006;6.512;2023-06-14T15:21:55;31.00;52.20
60027;DHT22;45891;53.006;6.512;2023-06-14T15:24:22;31.60;52.30
60027;DHT22;45891;53.006;6.512;2023-06-14T15:26:49;31.30;52.10
60027;DHT22;45891;53.006;6.512;2023-06-14T15:29:15;31.40;51.40
60027;DHT22;45891;53.006;6.512;2023-06-14T15:31:42;31.90;51.80
60027;DHT22;45891;53.006;6.512;2023-06-14T15:34:08;32.30;51.30
60027;DHT22;45891;53.006;6.512;2023-06-14T15:36:34;32.90;51.50
60027;DHT22;45891;53.006;6.512;2023-06-14T15:39:01;33.60;51.20
60027;DHT22;45891;53.006;6.512;2023-06-14T15:41:27;33.70;50.70
60027;DHT22;45891;53.006;6.512;2023-06-14T15:43:53;33.40;50.90
60027;DHT22;45891;53.006;6.512;2023-06-14T15:46:21;33.80;50.20
60027;DHT22;45891;53.006;6.512;2023-06-14T15:48:48;33.80;49.80